createdAt,value
2022-09-16T00:07:54.894Z,1.00
2022-09-16T00:13:26.664Z,1.00
2022-09-16T00:18:58.620Z,0.00
2022-09-16T00:24:30.339Z,0.00
2022-09-16T00:30:02.169Z,0.00
2022-09-16T00:35:33.948Z,0.00
2022-09-16T00:41:05.752Z,0.00
2022-09-16T00:46:37.414Z,0.00
2022-09-16T00:52:09.360Z,0.00
2022-09-16T00:57:41.039Z,0.00
2022-09-16T01:03:12.974Z,0.00
2022-09-16T01:08:44.566Z,0.00
2022-09-16T01:14:16.286Z,0.00
2022-09-16T01:25:19.802Z,0.00
2022-09-16T01:30:51.204Z,0.00
2022-09-16T01:36:22.607Z,0.00
2022-09-16T01:41:54.883Z,1.00
2022-09-16T01:47:26.644Z,1.00
2022-09-16T01:52:58.396Z,0.00
2022-09-16T01:58:29.827Z,0.00
2022-09-16T02:04:01.713Z,1.00
2022-09-16T02:09:33.701Z,0.00
2022-09-16T02:15:05.206Z,0.00
2022-09-16T02:20:37.064Z,0.00
2022-09-16T02:26:08.352Z,0.00
2022-09-16T02:31:39.900Z,0.00
2022-09-16T02:37:11.355Z,1.00
2022-09-16T02:42:43.149Z,0.00
2022-09-16T02:48:14.905Z,0.00
2022-09-16T02:53:46.738Z,0.00
2022-09-16T02:59:18.399Z,0.00
2022-09-16T03:04:50.196Z,0.00
2022-09-16T03:10:21.983Z,0.00
2022-09-16T03:15:53.664Z,0.00
2022-09-16T03:21:25.395Z,0.00
2022-09-16T03:26:57.338Z,0.00
2022-09-16T03:32:29.088Z,0.00
2022-09-16T03:38:00.923Z,0.00
2022-09-16T03:43:32.958Z,0.00
2022-09-16T03:49:04.304Z,1.00
2022-09-16T03:54:36.125Z,0.00
2022-09-16T04:00:07.954Z,1.00
2022-09-16T04:08:00.565Z,0.00
2022-09-16T04:21:14.398Z,3.00
2022-09-16T04:37:48.657Z,48.00
2022-09-16T04:43:20.140Z,124.00
2022-09-16T04:48:51.549Z,399.00
2022-09-16T04:54:22.932Z,364.00
2022-09-16T05:05:24.177Z,467.00
2022-09-16T05:10:55.537Z,730.00
2022-09-16T05:16:26.906Z,893.00
2022-09-16T05:21:58.436Z,1060.00
2022-09-16T05:27:30.043Z,967.00
2022-09-16T05:33:01.432Z,995.00
2022-09-16T05:38:32.865Z,1040.00
2022-09-16T05:44:04.197Z,1620.00
2022-09-16T05:49:35.389Z,4912.00
2022-09-16T06:00:36.044Z,3857.00
2022-09-16T06:06:08.041Z,3974.00
2022-09-16T06:11:39.755Z,6407.00
2022-09-16T06:17:11.432Z,5160.00
2022-09-16T06:22:42.774Z,4841.00
2022-09-16T06:28:14.250Z,6208.00
2022-09-16T06:33:45.945Z,5851.00
2022-09-16T06:39:17.626Z,5327.00
2022-09-16T06:44:49.069Z,5540.00
2022-09-16T06:50:20.332Z,5152.00
2022-09-16T06:55:51.807Z,5038.00
2022-09-16T07:01:23.656Z,6013.00
2022-09-16T07:07:09.253Z,6667.00
2022-09-16T07:12:26.591Z,5948.00
2022-09-16T07:17:58.018Z,5576.00
2022-09-16T07:23:29.587Z,7996.00
2022-09-16T07:29:01.015Z,9960.00
2022-09-16T07:34:32.287Z,10943.00
2022-09-16T07:40:05.606Z,12197.00
2022-09-16T07:45:36.897Z,12727.00
2022-09-16T07:51:08.516Z,12167.00
2022-09-16T07:56:40.014Z,12124.00
2022-09-16T08:02:12.013Z,13473.00
2022-09-16T08:07:44.102Z,14329.00
2022-09-16T08:13:15.328Z,12170.00
2022-09-16T08:18:46.666Z,8697.00
2022-09-16T08:24:18.382Z,12525.00
2022-09-16T08:29:49.778Z,17618.00
2022-09-16T08:35:21.122Z,17138.00
2022-09-16T08:46:21.940Z,11275.00
2022-09-16T08:51:53.338Z,7232.00
2022-09-16T09:02:54.405Z,4223.00
2022-09-16T09:13:57.868Z,5421.00
2022-09-16T09:19:29.246Z,5673.00
2022-09-16T09:25:00.629Z,5138.00
2022-09-16T09:30:32.324Z,4115.00
2022-09-16T09:36:03.681Z,9661.00
2022-09-16T09:47:04.627Z,10555.00
2022-09-16T09:52:36.086Z,12353.00
2022-09-16T09:58:07.944Z,10256.00
2022-09-16T10:03:39.644Z,6710.00
2022-09-16T10:14:40.422Z,7694.00
2022-09-16T10:20:12.246Z,3036.00
2022-09-16T10:25:43.652Z,6025.00
2022-09-16T10:31:15.369Z,7007.00
2022-09-16T10:42:16.355Z,8559.00
2022-09-16T10:47:47.920Z,6934.00
2022-09-16T10:53:19.189Z,4685.00
2022-09-16T11:04:22.438Z,5435.00
2022-09-16T11:09:54.201Z,7162.00
2022-09-16T11:31:58.432Z,3281.00
2022-09-16T11:37:30.306Z,6642.00
2022-09-16T11:43:01.980Z,8809.00
2022-09-16T11:48:33.747Z,12963.00
2022-09-16T11:54:05.504Z,13101.00
2022-09-16T11:59:37.205Z,12897.00
2022-09-16T12:10:38.055Z,12400.00
2022-09-16T12:16:10.593Z,12115.00
2022-09-16T12:21:42.261Z,10241.00
2022-09-16T12:27:13.911Z,8114.00
2022-09-16T12:32:45.585Z,9779.00
2022-09-16T12:38:17.538Z,6861.00
2022-09-16T12:43:49.216Z,5500.00
2022-09-16T12:49:21.002Z,6379.00
2022-09-16T12:55:07.298Z,12428.00
2022-09-16T13:00:23.957Z,13845.00
2022-09-16T13:05:55.438Z,14836.00
2022-09-16T13:16:59.380Z,18741.00
2022-09-16T13:22:31.054Z,15170.00
2022-09-16T13:28:02.636Z,15292.00
2022-09-16T13:33:34.666Z,12781.00
2022-09-16T13:39:06.890Z,11746.00
2022-09-16T13:44:38.865Z,11125.00
2022-09-16T13:55:40.049Z,10210.00
2022-09-16T14:01:13.926Z,7427.00
2022-09-16T14:06:45.675Z,7420.00
2022-09-16T14:12:17.508Z,6899.00
2022-09-16T14:17:51.553Z,7117.00
2022-09-16T14:23:21.239Z,7030.00
2022-09-16T14:28:52.775Z,9452.00
2022-09-16T14:34:24.615Z,9946.00
2022-09-16T14:39:56.465Z,9639.00
2022-09-16T14:45:27.862Z,7912.00
2022-09-16T14:50:59.460Z,7277.00
2022-09-16T14:56:30.972Z,5971.00
2022-09-16T15:02:02.905Z,6498.00
2022-09-16T15:07:34.431Z,6405.00
2022-09-16T15:13:06.372Z,7462.00
2022-09-16T15:18:38.178Z,7815.00
2022-09-16T15:24:09.938Z,7572.00
2022-09-16T15:29:41.537Z,7013.00
2022-09-16T15:35:13.320Z,6712.00
2022-09-16T15:40:45.072Z,5401.00
2022-09-16T15:51:49.504Z,5863.00
2022-09-16T15:57:21.106Z,5827.00
2022-09-16T16:02:52.792Z,6995.00
2022-09-16T16:08:24.467Z,9721.00
2022-09-16T16:13:59.851Z,5442.00
2022-09-16T16:19:27.438Z,3887.00
2022-09-16T16:30:28.597Z,5926.00
2022-09-16T16:36:02.068Z,3754.00
2022-09-16T16:41:33.256Z,2311.00
2022-09-16T16:47:04.718Z,2207.00
2022-09-16T16:52:36.374Z,2184.00
2022-09-16T16:58:08.282Z,1801.00
2022-09-16T17:03:40.044Z,1713.00
2022-09-16T17:09:15.699Z,988.00
2022-09-16T17:14:43.070Z,638.00
2022-09-16T17:20:14.830Z,434.00
2022-09-16T17:25:46.498Z,222.00
2022-09-16T17:27:58.420Z,165.00
2022-09-16T17:33:30.133Z,119.00
2022-09-16T17:39:01.684Z,75.00
2022-09-16T17:44:33.034Z,33.00
2022-09-16T17:50:04.394Z,11.00
2022-09-16T17:55:35.769Z,4.00
2022-09-16T18:03:29.374Z,1.00
2022-09-16T18:09:01.007Z,1.00
2022-09-16T18:14:32.605Z,1.00
2022-09-16T18:20:07.082Z,1.00
2022-09-16T18:25:35.523Z,1.00
2022-09-16T18:31:07.016Z,1.00
2022-09-16T18:36:38.601Z,0.00
2022-09-16T18:42:10.333Z,1.00
2022-09-16T18:47:42.043Z,1.00
2022-09-16T18:53:13.598Z,1.00
2022-09-16T18:58:58.252Z,2.00
2022-09-16T19:04:16.260Z,0.00
2022-09-16T19:09:47.670Z,0.00
2022-09-16T19:15:18.849Z,0.00
2022-09-16T19:20:50.559Z,1.00
2022-09-16T19:26:22.139Z,1.00
2022-09-16T19:31:53.386Z,1.00
2022-09-16T19:37:25.264Z,0.00
2022-09-16T19:42:56.539Z,1.00
2022-09-16T19:48:27.843Z,1.00
2022-09-16T19:53:59.393Z,0.00
2022-09-16T19:59:30.997Z,1.00
2022-09-16T20:05:05.092Z,0.00
2022-09-16T20:10:34.807Z,0.00
2022-09-16T20:16:05.946Z,0.00
2022-09-16T20:27:08.686Z,1.00
2022-09-16T20:32:40.014Z,1.00
2022-09-16T20:38:11.417Z,1.00
2022-09-16T20:43:43.048Z,0.00
2022-09-16T20:49:14.232Z,1.00
2022-09-16T20:54:45.712Z,1.00
2022-09-16T21:00:17.678Z,0.00
2022-09-16T21:05:49.364Z,0.00
2022-09-16T21:11:21.028Z,0.00
2022-09-16T21:16:52.640Z,0.00
2022-09-16T21:22:24.410Z,0.00
2022-09-16T21:27:56.171Z,0.00
2022-09-16T21:33:28.061Z,0.00
2022-09-16T21:38:59.709Z,0.00
2022-09-16T21:44:30.918Z,0.00
2022-09-16T21:50:02.241Z,0.00
2022-09-16T21:55:33.520Z,0.00
2022-09-16T22:01:05.122Z,1.00
2022-09-16T22:06:37.022Z,1.00
2022-09-16T22:12:08.681Z,1.00
2022-09-16T22:17:40.394Z,0.00
2022-09-16T22:23:12.413Z,1.00
2022-09-16T22:28:43.959Z,1.00
2022-09-16T22:34:15.445Z,0.00
2022-09-16T22:39:47.097Z,1.00
2022-09-16T22:45:18.632Z,0.00
2022-09-16T22:50:50.120Z,0.00
2022-09-16T22:56:21.700Z,0.00
2022-09-16T23:01:53.216Z,0.00
2022-09-16T23:07:24.519Z,1.00
2022-09-16T23:12:55.715Z,1.00
2022-09-16T23:18:27.082Z,0.00
2022-09-16T23:23:58.224Z,1.00
2022-09-16T23:29:29.857Z,0.00
2022-09-16T23:35:01.737Z,1.00
2022-09-16T23:40:33.707Z,0.00
2022-09-16T23:46:05.195Z,1.00
2022-09-16T23:51:36.820Z,0.00
